Time;durP1;ratioP1;P1;durP2;ratioP2;P2;SDS_P1;SDS_P2;PMS_P1;PMS_P2;Temp;Humidity;BMP_temperature;BMP_pressure;BME280_temperature;BME280_humidity;BME280_pressure;Samples;Min_cycle;Max_cycle;Signal;HPM_P1;HPM_P2
2021/11/03 00:02:21;;;;;;;15.55;10.30;;;;;;;;;;5017484;28;20087;-79
2021/11/03 00:04:47;;;;;;;14.43;10.50;;;;;;;;;;5006309;28;20037;-82
2021/11/03 00:07:14;;;;;;;16.65;10.43;;;;;;;;;;5007481;28;20084;-81
2021/11/03 00:09:40;;;;;;;15.45;10.10;;;;;;;;;;5006838;28;20424;-82
2021/11/03 00:12:10;;;;;;;15.93;10.23;;;;;;;;;;5010054;28;20049;-82
2021/11/03 00:14:36;;;;;;;15.48;10.27;;;;;;;;;;5014742;28;20119;-79
2021/11/03 00:17:01;;;;;;;16.42;9.77;;;;;;;;;;5013919;28;20112;-78
2021/11/03 00:19:27;;;;;;;14.23;9.63;;;;;;;;;;5013138;28;20134;-81
2021/11/03 00:21:52;;;;;;;14.75;10.45;;;;;;;;;;5009867;28;20029;-79
2021/11/03 00:24:17;;;;;;;15.27;10.30;;;;;;;;;;5009945;28;20030;-82
2021/11/03 00:26:43;;;;;;;14.40;9.75;;;;;;;;;;5018713;28;20432;-82
2021/11/03 00:29:08;;;;;;;14.38;9.82;;;;;;;;;;5009515;28;20489;-81
2021/11/03 00:31:33;;;;;;;14.13;10.00;;;;;;;;;;5011166;28;20026;-78
2021/11/03 00:33:59;;;;;;;19.35;10.50;;;;;;;;;;5015223;28;20508;-82
2021/11/03 00:36:24;;;;;;;16.10;10.52;;;;;;;;;;5010563;28;20313;-77
2021/11/03 00:38:49;;;;;;;14.57;9.88;;;;;;;;;;5008131;28;20053;-77
2021/11/03 00:41:15;;;;;;;13.10;9.10;;;;;;;;;;5007697;28;20026;-77
2021/11/03 00:43:41;;;;;;;15.43;10.25;;;;;;;;;;5016480;28;20036;-78
2021/11/03 00:46:06;;;;;;;14.00;9.40;;;;;;;;;;5014741;28;20034;-78
2021/11/03 00:48:32;;;;;;;13.80;9.85;;;;;;;;;;5018142;28;20032;-77
2021/11/03 00:50:59;;;;;;;12.90;10.07;;;;;;;;;;5007330;28;20022;-82
2021/11/03 00:53:24;;;;;;;14.32;9.93;;;;;;;;;;5014305;28;20030;-77
2021/11/03 00:55:49;;;;;;;16.75;10.40;;;;;;;;;;5009469;28;20036;-77
2021/11/03 00:58:15;;;;;;;14.98;10.40;;;;;;;;;;5016826;28;20071;-82
2021/11/03 01:00:40;;;;;;;13.93;9.93;;;;;;;;;;5019156;28;20025;-77
2021/11/03 01:03:06;;;;;;;16.65;10.52;;;;;;;;;;5017798;28;20397;-77
2021/11/03 01:05:37;;;;;;;17.50;10.20;;;;;;;;;;5015100;28;20040;-82
2021/11/03 01:08:03;;;;;;;16.25;11.00;;;;;;;;;;5013581;28;20042;-78
2021/11/03 01:10:28;;;;;;;14.55;10.48;;;;;;;;;;5012604;28;20381;-78
2021/11/03 01:12:54;;;;;;;16.40;10.40;;;;;;;;;;5014217;28;20053;-78
2021/11/03 01:15:22;;;;;;;13.75;10.70;;;;;;;;;;5018487;28;20370;-82
2021/11/03 01:17:48;;;;;;;15.45;10.85;;;;;;;;;;5013663;28;20030;-77
2021/11/03 01:20:14;;;;;;;16.38;10.73;;;;;;;;;;5016338;28;20079;-81
2021/11/03 01:22:39;;;;;;;16.55;10.50;;;;;;;;;;5013306;28;20334;-82
2021/11/03 01:25:07;;;;;;;13.52;9.57;;;;;;;;;;5013042;28;20034;-77
2021/11/03 01:27:33;;;;;;;14.38;10.18;;;;;;;;;;5010076;28;20074;-82
2021/11/03 01:29:58;;;;;;;14.82;10.70;;;;;;;;;;5009994;28;20434;-78
2021/11/03 01:32:24;;;;;;;13.35;10.00;;;;;;;;;;5007378;28;20038;-82
2021/11/03 01:34:49;;;;;;;17.75;11.00;;;;;;;;;;5011948;28;20030;-81
2021/11/03 01:37:15;;;;;;;16.15;10.05;;;;;;;;;;5009463;28;20148;-81
2021/11/03 01:39:40;;;;;;;16.65;10.25;;;;;;;;;;5004867;28;20050;-81
2021/11/03 01:42:05;;;;;;;15.48;10.48;;;;;;;;;;5013123;28;20477;-81
2021/11/03 01:44:31;;;;;;;17.60;10.80;;;;;;;;;;5018531;28;20107;-82
2021/11/03 01:47:34;;;;;;;14.70;10.40;;;;;;;;;;5015900;28;20512;-77
2021/11/03 01:50:01;;;;;;;14.10;9.85;;;;;;;;;;5004125;28;20026;-82
2021/11/03 01:52:26;;;;;;;16.15;10.43;;;;;;;;;;5012425;28;20167;-77
2021/11/03 01:54:56;;;;;;;14.82;9.75;;;;;;;;;;5011007;28;20532;-81
2021/11/03 01:57:31;;;;;;;13.52;9.65;;;;;;;;;;5004305;28;20088;-82
2021/11/03 02:00:02;;;;;;;16.35;10.07;;;;;;;;;;5013093;28;20033;-79
2021/11/03 02:02:28;;;;;;;14.68;9.88;;;;;;;;;;5013715;28;20044;-77
2021/11/03 02:04:54;;;;;;;17.98;10.35;;;;;;;;;;5011709;28;20453;-82
2021/11/03 02:07:24;;;;;;;12.93;9.45;;;;;;;;;;5013370;28;20048;-78
2021/11/03 02:09:51;;;;;;;15.77;10.23;;;;;;;;;;5007411;28;20026;-77
2021/11/03 02:12:28;;;;;;;15.10;10.10;;;;;;;;;;5013446;28;20124;-82
2021/11/03 02:14:54;;;;;;;12.82;9.35;;;;;;;;;;5007076;28;20482;-78
2021/11/03 02:17:21;;;;;;;14.70;9.82;;;;;;;;;;5017817;28;20080;-83
2021/11/03 02:19:47;;;;;;;13.85;9.57;;;;;;;;;;5014070;28;20125;-83
2021/11/03 02:22:27;;;;;;;14.13;9.55;;;;;;;;;;5011952;28;20066;-77
2021/11/03 02:25:22;;;;;;;14.75;9.82;;;;;;;;;;5009196;28;20037;-78
2021/11/03 02:27:49;;;;;;;13.82;9.55;;;;;;;;;;5010031;28;20040;-81
2021/11/03 02:30:19;;;;;;;13.57;9.93;;;;;;;;;;5009291;28;20067;-77
2021/11/03 02:32:45;;;;;;;12.70;9.43;;;;;;;;;;5008334;28;20112;-78
2021/11/03 02:35:12;;;;;;;14.43;9.80;;;;;;;;;;5008876;28;20033;-82
2021/11/03 02:37:39;;;;;;;13.88;10.27;;;;;;;;;;5012744;28;20036;-82
2021/11/03 02:40:20;;;;;;;16.17;9.88;;;;;;;;;;5010055;28;20069;-78
2021/11/03 02:42:49;;;;;;;15.32;9.88;;;;;;;;;;5018580;28;20743;-82
2021/11/03 02:45:34;;;;;;;17.15;10.13;;;;;;;;;;5014739;28;20045;-78
2021/11/03 02:47:59;;;;;;;17.40;10.93;;;;;;;;;;5002621;28;20034;-82
2021/11/03 02:50:25;;;;;;;14.73;10.02;;;;;;;;;;5012377;28;20022;-83
2021/11/03 02:52:50;;;;;;;14.63;10.55;;;;;;;;;;5014459;28;20029;-82
2021/11/03 02:55:15;;;;;;;14.93;11.07;;;;;;;;;;5012812;28;20061;-82
2021/11/03 02:57:41;;;;;;;14.20;10.30;;;;;;;;;;5011780;28;20030;-83
2021/11/03 03:00:10;;;;;;;14.88;10.48;;;;;;;;;;5014350;28;20188;-82
2021/11/03 03:02:36;;;;;;;14.80;10.88;;;;;;;;;;5011609;28;20564;-78
2021/11/03 03:05:02;;;;;;;16.60;11.00;;;;;;;;;;5017467;28;20029;-79
2021/11/03 03:07:27;;;;;;;18.27;10.48;;;;;;;;;;5012081;28;20022;-83
2021/11/03 03:09:53;;;;;;;13.88;9.88;;;;;;;;;;5011995;28;20084;-83
2021/11/03 03:12:20;;;;;;;16.17;9.93;;;;;;;;;;5013554;28;20076;-77
2021/11/03 03:14:49;;;;;;;16.02;10.02;;;;;;;;;;5014874;28;20472;-81
2021/11/03 03:17:16;;;;;;;14.85;9.90;;;;;;;;;;5010412;28;20030;-77
2021/11/03 03:19:43;;;;;;;13.40;9.35;;;;;;;;;;5013537;28;20026;-78
2021/11/03 03:22:10;;;;;;;14.95;10.13;;;;;;;;;;5010206;28;20458;-78
2021/11/03 03:24:36;;;;;;;14.45;9.88;;;;;;;;;;5010358;28;20045;-79
2021/11/03 03:27:02;;;;;;;15.15;9.82;;;;;;;;;;5010555;28;20021;-82
2021/11/03 03:29:27;;;;;;;13.65;9.32;;;;;;;;;;5016943;28;20060;-82
2021/11/03 03:31:53;;;;;;;14.45;9.82;;;;;;;;;;5004376;28;20034;-82
2021/11/03 03:34:21;;;;;;;14.63;10.15;;;;;;;;;;5010400;28;20035;-82
2021/11/03 03:36:48;;;;;;;13.02;9.80;;;;;;;;;;5007003;28;20033;-78
2021/11/03 03:39:16;;;;;;;14.15;9.60;;;;;;;;;;5014012;28;20068;-78
2021/11/03 03:41:43;;;;;;;14.90;9.93;;;;;;;;;;5016222;28;20048;-78
2021/11/03 03:44:09;;;;;;;12.82;9.27;;;;;;;;;;5012013;28;20034;-83
2021/11/03 03:46:34;;;;;;;14.23;9.05;;;;;;;;;;5009742;28;20034;-81
2021/11/03 03:49:00;;;;;;;13.52;9.80;;;;;;;;;;5008542;28;20041;-78
2021/11/03 03:51:26;;;;;;;12.98;8.85;;;;;;;;;;5014990;28;20084;-79
2021/11/03 03:53:51;;;;;;;12.93;8.80;;;;;;;;;;5015451;28;20049;-78
2021/11/03 03:56:17;;;;;;;14.13;9.48;;;;;;;;;;5013310;28;20107;-78
2021/11/03 03:58:44;;;;;;;12.63;8.70;;;;;;;;;;5006612;28;20453;-81
2021/11/03 04:01:13;;;;;;;12.60;9.15;;;;;;;;;;5006073;28;20032;-77
2021/11/03 04:03:39;;;;;;;13.95;9.15;;;;;;;;;;5008220;28;20030;-78
2021/11/03 04:06:04;;;;;;;13.50;9.20;;;;;;;;;;5009012;28;20407;-82
2021/11/03 04:08:29;;;;;;;14.45;9.20;;;;;;;;;;5012821;28;20037;-79
2021/11/03 04:10:56;;;;;;;13.30;8.80;;;;;;;;;;5012387;28;20030;-78
2021/11/03 04:13:21;;;;;;;12.30;8.82;;;;;;;;;;5010135;28;20085;-77
2021/11/03 04:15:47;;;;;;;15.45;9.45;;;;;;;;;;5006510;28;20030;-82
2021/11/03 04:18:12;;;;;;;12.93;9.25;;;;;;;;;;5006761;28;20410;-82
2021/11/03 04:20:38;;;;;;;13.55;9.02;;;;;;;;;;5009155;28;20112;-81
2021/11/03 04:23:04;;;;;;;15.43;9.32;;;;;;;;;;5009664;28;20057;-80
2021/11/03 04:25:29;;;;;;;14.57;10.18;;;;;;;;;;5010249;28;20057;-80
2021/11/03 04:27:55;;;;;;;14.48;8.68;;;;;;;;;;5008535;28;20032;-78
2021/11/03 04:30:26;;;;;;;14.30;9.48;;;;;;;;;;5009884;28;20036;-77
2021/11/03 04:32:51;;;;;;;12.85;9.10;;;;;;;;;;5005555;28;20122;-79
2021/11/03 04:35:17;;;;;;;14.65;9.25;;;;;;;;;;5006356;28;20022;-78
2021/11/03 04:37:43;;;;;;;13.65;9.82;;;;;;;;;;5003722;28;20037;-78
2021/11/03 04:40:11;;;;;;;12.68;9.65;;;;;;;;;;5009753;28;20469;-78
2021/11/03 04:42:37;;;;;;;13.43;9.38;;;;;;;;;;5018724;28;20045;-78
2021/11/03 04:45:04;;;;;;;12.20;9.43;;;;;;;;;;5013894;28;20021;-82
2021/11/03 04:47:30;;;;;;;13.43;9.25;;;;;;;;;;5010017;28;20022;-77
2021/11/03 04:49:57;;;;;;;12.43;8.88;;;;;;;;;;5011711;28;20053;-83
2021/11/03 04:52:23;;;;;;;10.77;8.02;;;;;;;;;;5012603;28;20026;-78
2021/11/03 04:54:48;;;;;;;11.15;8.07;;;;;;;;;;5008434;28;20036;-82
2021/11/03 04:57:18;;;;;;;11.95;8.85;;;;;;;;;;5015532;28;20034;-81
2021/11/03 04:59:47;;;;;;;13.02;8.35;;;;;;;;;;5008231;28;20037;-82
2021/11/03 05:02:14;;;;;;;13.10;8.35;;;;;;;;;;5000417;28;20046;-81
2021/11/03 05:04:40;;;;;;;13.73;9.48;;;;;;;;;;5018046;28;20388;-82
2021/11/03 05:07:06;;;;;;;13.35;8.90;;;;;;;;;;5008491;28;20045;-78
2021/11/03 05:09:32;;;;;;;13.60;9.38;;;;;;;;;;5013600;28;20033;-82
2021/11/03 05:11:57;;;;;;;14.88;9.10;;;;;;;;;;5009413;28;20069;-78
2021/11/03 05:14:23;;;;;;;13.43;9.57;;;;;;;;;;5019483;28;20029;-82
2021/11/03 05:16:48;;;;;;;13.60;9.43;;;;;;;;;;5015712;28;20044;-78
2021/11/03 05:19:26;;;;;;;13.90;9.38;;;;;;;;;;5014680;28;20026;-78
2021/11/03 05:21:54;;;;;;;13.13;9.43;;;;;;;;;;5008370;28;20036;-79
2021/11/03 05:24:20;;;;;;;13.65;9.50;;;;;;;;;;5013485;28;20125;-83
2021/11/03 05:26:46;;;;;;;15.68;9.50;;;;;;;;;;5012780;28;20568;-78
2021/11/03 05:29:12;;;;;;;14.68;9.75;;;;;;;;;;5015608;28;20025;-78
2021/11/03 05:31:38;;;;;;;12.27;8.85;;;;;;;;;;5012024;28;20029;-78
2021/11/03 05:34:03;;;;;;;12.77;9.10;;;;;;;;;;5015843;28;20037;-78
2021/11/03 05:36:29;;;;;;;13.73;9.15;;;;;;;;;;5011783;28;20034;-78
2021/11/03 05:38:57;;;;;;;13.52;9.43;;;;;;;;;;5004644;28;20044;-82
2021/11/03 05:41:23;;;;;;;12.75;9.18;;;;;;;;;;5011556;28;20029;-82
2021/11/03 05:43:48;;;;;;;13.05;8.88;;;;;;;;;;5011346;28;20497;-78
2021/11/03 05:46:16;;;;;;;12.38;8.43;;;;;;;;;;5009912;28;20053;-78
2021/11/03 05:48:44;;;;;;;11.65;8.07;;;;;;;;;;5014307;28;20394;-83
2021/11/03 05:51:10;;;;;;;11.57;7.90;;;;;;;;;;5019437;28;20388;-83
2021/11/03 05:53:38;;;;;;;13.10;7.60;;;;;;;;;;5012710;28;20254;-82
2021/11/03 05:56:05;;;;;;;13.88;8.65;;;;;;;;;;5004868;28;20027;-78
2021/11/03 05:58:32;;;;;;;12.18;8.43;;;;;;;;;;5004927;28;20121;-79
2021/11/03 06:00:57;;;;;;;14.48;8.70;;;;;;;;;;5002904;28;20056;-78
2021/11/03 06:03:22;;;;;;;13.77;9.73;;;;;;;;;;5005320;28;20026;-78
2021/11/03 06:05:48;;;;;;;14.93;9.75;;;;;;;;;;5001035;28;20132;-78
2021/11/03 06:08:13;;;;;;;15.02;9.75;;;;;;;;;;5007213;28;20026;-81
2021/11/03 06:10:40;;;;;;;13.27;9.55;;;;;;;;;;5006927;28;20028;-78
2021/11/03 06:13:07;;;;;;;14.35;10.32;;;;;;;;;;5011888;28;20048;-82
2021/11/03 06:15:33;;;;;;;16.30;11.27;;;;;;;;;;5014683;28;20379;-82
2021/11/03 06:18:00;;;;;;;15.25;10.30;;;;;;;;;;5012066;28;20033;-79
2021/11/03 06:20:26;;;;;;;16.08;11.00;;;;;;;;;;5009060;28;20041;-79
2021/11/03 06:22:52;;;;;;;14.73;10.57;;;;;;;;;;5002148;28;20080;-81
2021/11/03 06:25:18;;;;;;;14.95;10.60;;;;;;;;;;5007309;28;20373;-82
2021/11/03 06:27:45;;;;;;;14.93;10.07;;;;;;;;;;5005369;28;20151;-78
2021/11/03 06:30:16;;;;;;;14.20;10.18;;;;;;;;;;5012371;28;20029;-79
2021/11/03 06:32:42;;;;;;;15.15;10.05;;;;;;;;;;5008089;28;20463;-82
2021/11/03 06:35:08;;;;;;;15.32;10.55;;;;;;;;;;5022291;28;20033;-78
2021/11/03 06:37:34;;;;;;;17.50;11.38;;;;;;;;;;5012624;28;20275;-77
2021/11/03 06:39:59;;;;;;;15.55;11.27;;;;;;;;;;5014823;28;20037;-81
2021/11/03 06:42:25;;;;;;;16.05;10.90;;;;;;;;;;5007573;28;20076;-78
2021/11/03 06:44:51;;;;;;;15.35;11.02;;;;;;;;;;5022328;28;20034;-78
2021/11/03 06:47:18;;;;;;;15.30;10.93;;;;;;;;;;5016722;28;20046;-83
2021/11/03 06:49:44;;;;;;;15.52;10.63;;;;;;;;;;5018906;28;20053;-83
2021/11/03 06:52:09;;;;;;;15.52;10.93;;;;;;;;;;5012329;28;20048;-82
2021/11/03 06:54:34;;;;;;;15.07;10.77;;;;;;;;;;5010881;28;20026;-77
2021/11/03 06:57:02;;;;;;;15.05;10.15;;;;;;;;;;5016866;28;20030;-83
2021/11/03 06:59:28;;;;;;;16.25;10.43;;;;;;;;;;5016019;28;20056;-78
2021/11/03 07:01:53;;;;;;;18.27;11.13;;;;;;;;;;5009460;28;20061;-81
2021/11/03 07:04:18;;;;;;;18.45;11.35;;;;;;;;;;5013929;28;20719;-78
2021/11/03 07:06:43;;;;;;;16.05;10.77;;;;;;;;;;5026687;28;20025;-78
2021/11/03 07:09:09;;;;;;;15.68;10.82;;;;;;;;;;5015125;28;20026;-77
2021/11/03 07:11:35;;;;;;;15.85;10.85;;;;;;;;;;5017597;28;20501;-78
2021/11/03 07:14:00;;;;;;;15.85;10.45;;;;;;;;;;5004659;28;20513;-81
2021/11/03 07:16:26;;;;;;;14.13;10.45;;;;;;;;;;5001181;28;20506;-81
2021/11/03 07:18:52;;;;;;;15.20;10.73;;;;;;;;;;5011413;28;20511;-82
2021/11/03 07:21:18;;;;;;;14.02;10.40;;;;;;;;;;5018565;28;20030;-77
2021/11/03 07:23:43;;;;;;;14.57;10.48;;;;;;;;;;5001120;28;20029;-79
2021/11/03 07:26:08;;;;;;;14.73;10.18;;;;;;;;;;5015829;28;20026;-78
2021/11/03 07:28:36;;;;;;;18.38;10.60;;;;;;;;;;5013213;28;20770;-82
2021/11/03 07:31:03;;;;;;;13.68;9.90;;;;;;;;;;5006900;28;20109;-77
2021/11/03 07:33:28;;;;;;;13.27;9.82;;;;;;;;;;5008699;28;20347;-81
2021/11/03 07:35:54;;;;;;;13.90;10.32;;;;;;;;;;5016422;28;20029;-77
2021/11/03 07:38:20;;;;;;;13.30;10.02;;;;;;;;;;5008892;28;20509;-81
2021/11/03 07:40:53;;;;;;;14.35;10.10;;;;;;;;;;5008958;28;20445;-82
2021/11/03 07:43:19;;;;;;;;;;;;;;;;;;5008313;28;20030;-81
2021/11/03 07:45:48;;;;;;;13.18;9.45;;;;;;;;;;5016120;28;19913;-77
2021/11/03 07:48:14;;;;;;;13.50;9.20;;;;;;;;;;5011568;28;20076;-77
2021/11/03 07:50:44;;;;;;;14.05;9.65;;;;;;;;;;5024397;28;20021;-77
2021/11/03 07:53:11;;;;;;;14.15;10.15;;;;;;;;;;5014862;28;20061;-77
2021/11/03 07:55:37;;;;;;;13.77;10.05;;;;;;;;;;5014260;28;20442;-77
2021/11/03 07:58:04;;;;;;;14.60;10.35;;;;;;;;;;5016649;28;20026;-77
2021/11/03 08:00:33;;;;;;;14.02;9.75;;;;;;;;;;5023690;28;20032;-78
2021/11/03 08:02:58;;;;;;;14.02;10.20;;;;;;;;;;5008669;28;20033;-77
2021/11/03 08:05:28;;;;;;;12.93;8.77;;;;;;;;;;5018461;28;20028;-77
2021/11/03 08:07:55;;;;;;;16.52;9.73;;;;;;;;;;5010272;28;20071;-83
2021/11/03 08:10:21;;;;;;;12.85;9.60;;;;;;;;;;5014172;28;20026;-77
2021/11/03 08:12:47;;;;;;;13.95;9.80;;;;;;;;;;5022996;28;20132;-77
2021/11/03 08:15:12;;;;;;;14.95;10.32;;;;;;;;;;5017464;28;20468;-78
2021/11/03 08:17:40;;;;;;;14.65;10.07;;;;;;;;;;5014223;28;20116;-81
2021/11/03 08:20:08;;;;;;;15.43;10.60;;;;;;;;;;5009858;28;20029;-77
2021/11/03 08:22:34;;;;;;;15.18;10.35;;;;;;;;;;5016790;28;20021;-82
2021/11/03 08:25:00;;;;;;;17.05;10.43;;;;;;;;;;5020434;28;20381;-78
2021/11/03 08:27:26;;;;;;;14.93;10.35;;;;;;;;;;5010201;28;20494;-81
2021/11/03 08:29:52;;;;;;;15.43;10.50;;;;;;;;;;5014525;28;20034;-77
2021/11/03 08:32:21;;;;;;;16.48;10.43;;;;;;;;;;5017717;28;20017;-81
2021/11/03 08:34:47;;;;;;;17.05;10.07;;;;;;;;;;5016497;28;20049;-78
2021/11/03 08:37:18;;;;;;;13.18;9.52;;;;;;;;;;5019510;28;20032;-77
2021/11/03 08:39:46;;;;;;;13.25;9.45;;;;;;;;;;5018143;28;20045;-81
2021/11/03 08:42:12;;;;;;;14.55;8.30;;;;;;;;;;5017796;28;20120;-78
2021/11/03 08:44:40;;;;;;;13.43;9.10;;;;;;;;;;5016995;28;20101;-82
2021/11/03 08:47:07;;;;;;;12.90;8.68;;;;;;;;;;5013852;28;20021;-82
2021/11/03 08:49:34;;;;;;;13.13;9.18;;;;;;;;;;5022457;28;20032;-77
2021/11/03 08:52:00;;;;;;;13.07;9.15;;;;;;;;;;5024177;28;20117;-81
2021/11/03 08:54:25;;;;;;;12.07;9.20;;;;;;;;;;5021245;28;20572;-77
2021/11/03 08:56:50;;;;;;;12.45;9.43;;;;;;;;;;5024453;28;20387;-80
2021/11/03 08:59:16;;;;;;;11.15;8.63;;;;;;;;;;5018426;28;20436;-78
2021/11/03 09:01:43;;;;;;;10.43;8.52;;;;;;;;;;5020960;28;20040;-78
2021/11/03 09:04:09;;;;;;;11.77;8.80;;;;;;;;;;5019839;28;20508;-78
2021/11/03 09:06:36;;;;;;;11.57;9.23;;;;;;;;;;5017029;28;20018;-77
2021/11/03 09:09:02;;;;;;;13.98;9.77;;;;;;;;;;5015563;28;20041;-81
2021/11/03 09:11:28;;;;;;;14.40;9.82;;;;;;;;;;5018786;28;20026;-81
2021/11/03 09:13:53;;;;;;;12.93;9.60;;;;;;;;;;5011013;28;20036;-81
2021/11/03 09:16:19;;;;;;;13.52;9.93;;;;;;;;;;5018773;28;20397;-79
2021/11/03 09:18:45;;;;;;;12.25;9.90;;;;;;;;;;5016495;28;20056;-81
2021/11/03 09:21:11;;;;;;;13.20;10.00;;;;;;;;;;5012028;28;20060;-78
2021/11/03 09:23:38;;;;;;;13.07;10.40;;;;;;;;;;5017993;28;20018;-78
2021/11/03 09:26:04;;;;;;;15.13;10.43;;;;;;;;;;5012213;28;20049;-81
2021/11/03 09:28:33;;;;;;;16.23;10.35;;;;;;;;;;5021395;28;20030;-78
2021/11/03 09:31:02;;;;;;;12.98;9.43;;;;;;;;;;5017977;28;20104;-81
2021/11/03 09:33:28;;;;;;;12.07;9.50;;;;;;;;;;5013848;28;20025;-81
2021/11/03 09:35:55;;;;;;;13.40;9.93;;;;;;;;;;5015740;28;20041;-78
2021/11/03 09:38:26;;;;;;;13.10;10.77;;;;;;;;;;5015643;28;20393;-82
2021/11/03 09:41:05;;;;;;;12.10;9.13;;;;;;;;;;5019213;28;20481;-78
2021/11/03 09:43:38;;;;;;;13.82;9.90;;;;;;;;;;5011302;28;20021;-78
2021/11/03 09:46:19;;;;;;;14.25;10.10;;;;;;;;;;5012355;28;20022;-77
2021/11/03 09:48:50;;;;;;;17.25;10.60;;;;;;;;;;5016166;28;20076;-78
2021/11/03 09:51:21;;;;;;;14.30;10.80;;;;;;;;;;5013971;28;20037;-81
2021/11/03 09:53:58;;;;;;;14.18;10.77;;;;;;;;;;5014057;28;20030;-77
2021/11/03 09:56:45;;;;;;;16.10;11.20;;;;;;;;;;5021081;28;20021;-78
2021/11/03 09:59:25;;;;;;;14.10;10.23;;;;;;;;;;5018292;28;20033;-77
2021/11/03 10:02:26;;;;;;;15.43;10.80;;;;;;;;;;5018237;28;20101;-83
2021/11/03 10:05:10;;;;;;;14.00;10.70;;;;;;;;;;5007882;28;20073;-77
2021/11/03 10:07:51;;;;;;;12.98;9.50;;;;;;;;;;5018851;28;20044;-78
2021/11/03 10:10:33;;;;;;;17.27;12.05;;;;;;;;;;5017681;28;20485;-77
2021/11/03 10:13:11;;;;;;;16.00;11.57;;;;;;;;;;5015445;28;20058;-81
2021/11/03 10:15:37;;;;;;;16.60;11.48;;;;;;;;;;5012819;28;20407;-79
2021/11/03 10:18:14;;;;;;;14.13;10.68;;;;;;;;;;5021679;28;20029;-78
2021/11/03 10:20:44;;;;;;;17.20;12.40;;;;;;;;;;5013297;28;20026;-77
2021/11/03 10:23:19;;;;;;;15.63;11.48;;;;;;;;;;5014277;28;20034;-82
2021/11/03 10:26:02;;;;;;;17.67;12.23;;;;;;;;;;5022860;28;20036;-77
2021/11/03 10:28:40;;;;;;;16.58;11.82;;;;;;;;;;5018116;28;20025;-77
2021/11/03 10:31:18;;;;;;;17.08;11.95;;;;;;;;;;5016604;28;20026;-77
2021/11/03 10:33:44;;;;;;;16.80;12.55;;;;;;;;;;5022851;28;20032;-81
2021/11/03 10:36:15;;;;;;;16.02;11.63;;;;;;;;;;5015788;28;20041;-83
2021/11/03 10:38:47;;;;;;;16.20;11.70;;;;;;;;;;5018747;28;20104;-83
2021/11/03 10:41:24;;;;;;;16.75;12.82;;;;;;;;;;5015214;28;20033;-78
2021/11/03 10:44:03;;;;;;;16.92;12.00;;;;;;;;;;5007760;28;20026;-82
2021/11/03 10:46:32;;;;;;;16.98;11.85;;;;;;;;;;5015012;28;20405;-81
2021/11/03 10:49:27;;;;;;;15.55;11.57;;;;;;;;;;5013353;28;20478;-81
2021/11/03 10:52:14;;;;;;;16.02;11.55;;;;;;;;;;5013013;28;20034;-78
2021/11/03 10:55:12;;;;;;;17.02;11.50;;;;;;;;;;5022805;28;20037;-80
2021/11/03 10:57:41;;;;;;;16.10;11.52;;;;;;;;;;5019807;28;20576;-77
2021/11/03 11:00:27;;;;;;;19.90;14.65;;;;;;;;;;5017306;28;20109;-79
2021/11/03 11:03:14;;;;;;;16.80;12.70;;;;;;;;;;5019305;28;20025;-77
2021/11/03 11:05:43;;;;;;;17.85;11.93;;;;;;;;;;5017079;28;20041;-78
2021/11/03 11:08:22;;;;;;;25.27;15.48;;;;;;;;;;5023068;28;20083;-78
2021/11/03 11:10:54;;;;;;;23.10;15.27;;;;;;;;;;5016255;28;20022;-77
2021/11/03 11:13:27;;;;;;;19.67;14.00;;;;;;;;;;5018772;28;20038;-79
2021/11/03 11:16:21;;;;;;;17.55;13.15;;;;;;;;;;5006854;28;20054;-78
2021/11/03 11:18:56;;;;;;;18.20;12.45;;;;;;;;;;5017601;28;20029;-78
2021/11/03 11:21:39;;;;;;;20.38;13.48;;;;;;;;;;5021769;28;20053;-81
2021/11/03 11:24:33;;;;;;;18.42;13.38;;;;;;;;;;5009199;28;20029;-81
2021/11/03 11:27:18;;;;;;;18.15;12.98;;;;;;;;;;5007973;28;20084;-78
2021/11/03 11:29:59;;;;;;;18.33;12.60;;;;;;;;;;5020523;28;20032;-82
2021/11/03 11:32:37;;;;;;;18.83;13.68;;;;;;;;;;5011752;28;20030;-81
2021/11/03 11:35:44;;;;;;;18.75;13.55;;;;;;;;;;5018430;28;20025;-77
2021/11/03 11:38:34;;;;;;;19.27;13.10;;;;;;;;;;5015553;28;20500;-77
2021/11/03 11:41:04;;;;;;;24.48;13.90;;;;;;;;;;5013849;28;20060;-78
2021/11/03 11:43:47;;;;;;;19.90;14.43;;;;;;;;;;5018272;28;20094;-77
2021/11/03 11:46:18;;;;;;;;;;;;;;;;;;5008124;28;20495;-77
2021/11/03 11:48:46;;;;;;;17.98;12.50;;;;;;;;;;5017338;28;20365;-82
2021/11/03 11:51:21;;;;;;;19.83;13.15;;;;;;;;;;5020088;28;20057;-82
2021/11/03 11:53:52;;;;;;;20.23;14.80;;;;;;;;;;5017380;28;20067;-78
2021/11/03 11:56:24;;;;;;;20.70;15.13;;;;;;;;;;5011699;28;20512;-78
2021/11/03 11:59:02;;;;;;;23.00;16.07;;;;;;;;;;5008815;28;20120;-78
2021/11/03 12:01:42;;;;;;;22.40;15.68;;;;;;;;;;5015728;28;20033;-78
2021/11/03 12:04:07;;;;;;;21.92;14.63;;;;;;;;;;5013977;28;20080;-77
2021/11/03 12:07:05;;;;;;;24.13;14.25;;;;;;;;;;5017238;28;20030;-82
2021/11/03 12:09:40;;;;;;;25.08;15.60;;;;;;;;;;5008768;28;20485;-81
2021/11/03 12:12:05;;;;;;;21.23;14.35;;;;;;;;;;5013934;28;20389;-78
2021/11/03 12:14:43;;;;;;;22.95;15.00;;;;;;;;;;5018460;28;20052;-82
2021/11/03 12:17:08;;;;;;;20.50;14.27;;;;;;;;;;5020310;28;20032;-78
2021/11/03 12:19:37;;;;;;;22.98;15.65;;;;;;;;;;5016499;28;20482;-79
2021/11/03 12:22:28;;;;;;;20.83;14.85;;;;;;;;;;5018151;28;20421;-78
2021/11/03 12:24:56;;;;;;;22.45;15.63;;;;;;;;;;5001893;28;20065;-78
2021/11/03 12:27:24;;;;;;;24.00;17.30;;;;;;;;;;5014198;28;20025;-79
2021/11/03 12:30:00;;;;;;;23.73;16.70;;;;;;;;;;5015872;28;20037;-81
2021/11/03 12:32:29;;;;;;;24.83;16.98;;;;;;;;;;5016842;28;20084;-78
2021/11/03 12:35:17;;;;;;;25.38;16.48;;;;;;;;;;5021876;28;20029;-82
2021/11/03 12:37:45;;;;;;;24.45;16.35;;;;;;;;;;5014868;28;20029;-82
2021/11/03 12:40:25;;;;;;;24.70;16.92;;;;;;;;;;5016963;28;20028;-82
2021/11/03 12:42:56;;;;;;;24.65;17.08;;;;;;;;;;5016338;28;20042;-82
2021/11/03 12:45:31;;;;;;;24.60;16.23;;;;;;;;;;5020982;28;20449;-78
2021/11/03 12:47:59;;;;;;;27.02;16.92;;;;;;;;;;5014858;28;20060;-84
2021/11/03 12:50:28;;;;;;;25.55;16.83;;;;;;;;;;5022236;28;20018;-80
2021/11/03 12:53:03;;;;;;;24.63;15.30;;;;;;;;;;5017333;28;20018;-86
2021/11/03 12:55:32;;;;;;;27.20;16.83;;;;;;;;;;5012161;28;20374;-86
2021/11/03 12:57:58;;;;;;;25.10;17.08;;;;;;;;;;5016318;28;20270;-87
2021/11/03 13:00:30;;;;;;;23.88;16.13;;;;;;;;;;5021938;28;20075;-82
2021/11/03 13:02:59;;;;;;;25.92;17.35;;;;;;;;;;5018554;28;20068;-87
2021/11/03 13:05:30;;;;;;;25.83;16.85;;;;;;;;;;5016594;28;20037;-81
2021/11/03 13:07:57;;;;;;;27.02;17.90;;;;;;;;;;5017920;28;20380;-80
2021/11/03 13:10:35;;;;;;;27.65;17.27;;;;;;;;;;5014033;28;20499;-87
2021/11/03 13:13:12;;;;;;;23.95;16.15;;;;;;;;;;5009463;28;20100;-87
2021/11/03 13:16:02;;;;;;;26.38;18.17;;;;;;;;;;5019013;28;20029;-79
2021/11/03 13:18:37;;;;;;;25.88;17.17;;;;;;;;;;5013122;28;20025;-80
2021/11/03 13:21:17;;;;;;;29.50;17.83;;;;;;;;;;5012137;28;20106;-84
2021/11/03 13:23:45;;;;;;;25.45;18.08;;;;;;;;;;5014133;28;20084;-83
2021/11/03 13:26:21;;;;;;;27.88;17.63;;;;;;;;;;5007343;28;20036;-84
2021/11/03 13:28:49;;;;;;;27.02;17.13;;;;;;;;;;5009718;28;20393;-84
2021/11/03 13:31:14;;;;;;;23.98;15.82;;;;;;;;;;5017058;28;20075;-81
2021/11/03 13:33:42;;;;;;;26.75;17.10;;;;;;;;;;5018508;28;20053;-83
2021/11/03 13:36:22;;;;;;;23.55;16.70;;;;;;;;;;5022155;28;20113;-81
2021/11/03 13:38:55;;;;;;;30.08;17.95;;;;;;;;;;5020501;28;20429;-82
2021/11/03 13:41:36;;;;;;;26.60;18.13;;;;;;;;;;5012172;28;20091;-86
2021/11/03 13:44:17;;;;;;;26.13;17.58;;;;;;;;;;5014788;28;20493;-84
2021/11/03 13:46:46;;;;;;;29.92;18.88;;;;;;;;;;5019578;28;20029;-84
2021/11/03 13:49:40;;;;;;;28.88;18.02;;;;;;;;;;5014765;28;20061;-81
2021/11/03 13:52:14;;;;;;;34.40;18.15;;;;;;;;;;5011210;28;20025;-88
2021/11/03 13:54:59;;;;;;;27.98;18.30;;;;;;;;;;5021709;28;20061;-79
2021/11/03 13:57:35;;;;;;;24.52;16.48;;;;;;;;;;5018479;28;20025;-88
2021/11/03 14:00:18;;;;;;;29.42;18.58;;;;;;;;;;5010992;28;20029;-81
2021/11/03 14:02:44;;;;;;;30.55;19.33;;;;;;;;;;5008002;28;20397;-80
2021/11/03 14:05:27;;;;;;;30.98;18.23;;;;;;;;;;5018689;28;20445;-87
2021/11/03 14:07:53;;;;;;;30.98;20.30;;;;;;;;;;5011562;28;20037;-88
2021/11/03 14:10:19;;;;;;;32.40;19.67;;;;;;;;;;5019109;28;20402;-81
2021/11/03 14:12:44;;;;;;;32.08;20.13;;;;;;;;;;5022112;28;20042;-79
2021/11/03 14:15:10;;;;;;;33.13;20.20;;;;;;;;;;5021324;28;20017;-84
2021/11/03 14:17:39;;;;;;;32.50;20.58;;;;;;;;;;5021212;28;20059;-81
2021/11/03 14:20:24;;;;;;;27.70;19.20;;;;;;;;;;5021508;28;20397;-81
2021/11/03 14:22:49;;;;;;;37.53;20.95;;;;;;;;;;5017425;28;20023;-88
2021/11/03 14:25:20;;;;;;;35.60;21.33;;;;;;;;;;5015078;28;20474;-88
2021/11/03 14:27:48;;;;;;;30.85;19.58;;;;;;;;;;5022693;28;20034;-81
2021/11/03 14:30:14;;;;;;;26.05;17.92;;;;;;;;;;5018766;28;20029;-81
2021/11/03 14:32:39;;;;;;;29.67;19.58;;;;;;;;;;5019664;28;20032;-80
2021/11/03 14:35:17;;;;;;;29.77;20.25;;;;;;;;;;5021341;28;20041;-80
2021/11/03 14:37:42;;;;;;;30.80;20.50;;;;;;;;;;5014303;28;20539;-83
2021/11/03 14:40:15;;;;;;;31.10;19.67;;;;;;;;;;5007846;28;20038;-86